sensor_id;sensor_type;location;lat;lon;timestamp;P1;durP1;ratioP1;P2;durP2;ratioP2
17953;SDS011;9102;53.548;9.926;2023-12-20T00:00:34;22.58;;;2.05;;
17953;SDS011;9102;53.548;9.926;2023-12-20T00:03:02;20.20;;;2.05;;
17953;SDS011;9102;53.548;9.926;2023-12-20T00:05:29;14.70;;;1.83;;
17953;SDS011;9102;53.548;9.926;2023-12-20T00:07:57;25.92;;;2.53;;
17953;SDS011;9102;53.548;9.926;2023-12-20T00:10:25;13.93;;;1.83;;
17953;SDS011;9102;53.548;9.926;2023-12-20T00:12:52;17.05;;;2.00;;
17953;SDS011;9102;53.548;9.926;2023-12-20T00:15:18;10.52;;;1.83;;
17953;SDS011;9102;53.548;9.926;2023-12-20T00:17:46;9.00;;;1.40;;
17953;SDS011;9102;53.548;9.926;2023-12-20T00:20:12;19.77;;;1.80;;
17953;SDS011;9102;53.548;9.926;2023-12-20T00:22:39;10.00;;;1.75;;
17953;SDS011;9102;53.548;9.926;2023-12-20T00:25:06;14.43;;;1.92;;
17953;SDS011;9102;53.548;9.926;2023-12-20T00:27:35;20.88;;;2.35;;
17953;SDS011;9102;53.548;9.926;2023-12-20T00:30:02;19.65;;;2.67;;
17953;SDS011;9102;53.548;9.926;2023-12-20T00:32:29;13.20;;;2.17;;
17953;SDS011;9102;53.548;9.926;2023-12-20T00:34:56;14.48;;;2.72;;
17953;SDS011;9102;53.548;9.926;2023-12-20T00:37:23;18.52;;;2.10;;
17953;SDS011;9102;53.548;9.926;2023-12-20T00:39:53;17.80;;;2.58;;
17953;SDS011;9102;53.548;9.926;2023-12-20T00:42:20;8.00;;;1.92;;
17953;SDS011;9102;53.548;9.926;2023-12-20T00:44:48;20.20;;;2.38;;
17953;SDS011;9102;53.548;9.926;2023-12-20T00:47:15;17.23;;;2.38;;
17953;SDS011;9102;53.548;9.926;2023-12-20T00:49:42;16.92;;;2.28;;
17953;SDS011;9102;53.548;9.926;2023-12-20T00:52:09;19.90;;;2.28;;
17953;SDS011;9102;53.548;9.926;2023-12-20T00:54:36;16.42;;;2.35;;
17953;SDS011;9102;53.548;9.926;2023-12-20T00:57:03;16.15;;;2.08;;
17953;SDS011;9102;53.548;9.926;2023-12-20T00:59:30;19.05;;;1.92;;
17953;SDS011;9102;53.548;9.926;2023-12-20T01:01:58;15.93;;;2.13;;
17953;SDS011;9102;53.548;9.926;2023-12-20T01:04:25;15.02;;;1.92;;
17953;SDS011;9102;53.548;9.926;2023-12-20T01:06:52;18.90;;;2.10;;
17953;SDS011;9102;53.548;9.926;2023-12-20T01:09:19;17.15;;;1.98;;
17953;SDS011;9102;53.548;9.926;2023-12-20T01:11:48;13.82;;;1.40;;
17953;SDS011;9102;53.548;9.926;2023-12-20T01:14:15;17.38;;;2.03;;
17953;SDS011;9102;53.548;9.926;2023-12-20T01:16:42;14.65;;;1.90;;
17953;SDS011;9102;53.548;9.926;2023-12-20T01:19:10;22.20;;;3.00;;
17953;SDS011;9102;53.548;9.926;2023-12-20T01:21:37;15.57;;;1.65;;
17953;SDS011;9102;53.548;9.926;2023-12-20T01:24:04;21.30;;;2.13;;
17953;SDS011;9102;53.548;9.926;2023-12-20T01:26:31;11.27;;;1.88;;
17953;SDS011;9102;53.548;9.926;2023-12-20T01:28:57;14.07;;;2.10;;
17953;SDS011;9102;53.548;9.926;2023-12-20T01:31:24;17.90;;;2.22;;
17953;SDS011;9102;53.548;9.926;2023-12-20T01:33:52;16.85;;;2.40;;
17953;SDS011;9102;53.548;9.926;2023-12-20T01:36:20;19.27;;;2.00;;
17953;SDS011;9102;53.548;9.926;2023-12-20T01:38:47;21.10;;;1.90;;
17953;SDS011;9102;53.548;9.926;2023-12-20T01:41:14;23.48;;;2.35;;
17953;SDS011;9102;53.548;9.926;2023-12-20T01:43:41;22.20;;;2.08;;
17953;SDS011;9102;53.548;9.926;2023-12-20T01:46:08;12.88;;;2.22;;
17953;SDS011;9102;53.548;9.926;2023-12-20T01:48:41;17.02;;;1.50;;
17953;SDS011;9102;53.548;9.926;2023-12-20T01:51:08;15.32;;;1.40;;
17953;SDS011;9102;53.548;9.926;2023-12-20T01:53:38;20.30;;;2.05;;
17953;SDS011;9102;53.548;9.926;2023-12-20T01:56:07;14.85;;;2.08;;
17953;SDS011;9102;53.548;9.926;2023-12-20T01:58:36;22.90;;;2.38;;
17953;SDS011;9102;53.548;9.926;2023-12-20T02:01:08;20.92;;;2.05;;
17953;SDS011;9102;53.548;9.926;2023-12-20T02:03:35;22.30;;;2.92;;
17953;SDS011;9102;53.548;9.926;2023-12-20T02:06:02;15.38;;;2.60;;
17953;SDS011;9102;53.548;9.926;2023-12-20T02:08:30;18.27;;;2.70;;
17953;SDS011;9102;53.548;9.926;2023-12-20T02:10:58;17.55;;;2.13;;
17953;SDS011;9102;53.548;9.926;2023-12-20T02:13:25;17.38;;;2.05;;
17953;SDS011;9102;53.548;9.926;2023-12-20T02:15:54;13.05;;;1.90;;
17953;SDS011;9102;53.548;9.926;2023-12-20T02:18:21;21.52;;;1.60;;
17953;SDS011;9102;53.548;9.926;2023-12-20T02:20:48;13.80;;;1.77;;
17953;SDS011;9102;53.548;9.926;2023-12-20T02:23:16;23.50;;;2.17;;
17953;SDS011;9102;53.548;9.926;2023-12-20T02:25:43;13.07;;;1.83;;
17953;SDS011;9102;53.548;9.926;2023-12-20T02:28:10;18.42;;;2.13;;
17953;SDS011;9102;53.548;9.926;2023-12-20T02:30:37;28.27;;;2.40;;
17953;SDS011;9102;53.548;9.926;2023-12-20T02:33:04;13.75;;;2.03;;
17953;SDS011;9102;53.548;9.926;2023-12-20T02:35:36;15.23;;;1.73;;
17953;SDS011;9102;53.548;9.926;2023-12-20T02:38:03;17.92;;;2.28;;
17953;SDS011;9102;53.548;9.926;2023-12-20T02:40:31;19.25;;;1.90;;
17953;SDS011;9102;53.548;9.926;2023-12-20T02:42:58;16.70;;;2.33;;
17953;SDS011;9102;53.548;9.926;2023-12-20T02:45:25;24.00;;;1.95;;
17953;SDS011;9102;53.548;9.926;2023-12-20T02:47:52;21.00;;;2.33;;
17953;SDS011;9102;53.548;9.926;2023-12-20T02:50:19;19.75;;;1.98;;
17953;SDS011;9102;53.548;9.926;2023-12-20T02:52:46;22.33;;;2.33;;
17953;SDS011;9102;53.548;9.926;2023-12-20T02:55:13;20.20;;;2.63;;
17953;SDS011;9102;53.548;9.926;2023-12-20T02:57:41;19.95;;;3.00;;
17953;SDS011;9102;53.548;9.926;2023-12-20T03:00:08;19.98;;;2.50;;
17953;SDS011;9102;53.548;9.926;2023-12-20T03:02:36;16.15;;;2.58;;
17953;SDS011;9102;53.548;9.926;2023-12-20T03:05:03;18.33;;;2.22;;
17953;SDS011;9102;53.548;9.926;2023-12-20T03:07:31;21.10;;;2.35;;
17953;SDS011;9102;53.548;9.926;2023-12-20T03:09:58;14.07;;;1.95;;
17953;SDS011;9102;53.548;9.926;2023-12-20T03:12:25;10.90;;;1.98;;
17953;SDS011;9102;53.548;9.926;2023-12-20T03:14:53;15.30;;;2.13;;
17953;SDS011;9102;53.548;9.926;2023-12-20T03:17:20;16.40;;;1.73;;
17953;SDS011;9102;53.548;9.926;2023-12-20T03:19:47;13.95;;;1.95;;
17953;SDS011;9102;53.548;9.926;2023-12-20T03:22:13;11.68;;;1.70;;
17953;SDS011;9102;53.548;9.926;2023-12-20T03:24:40;15.88;;;2.22;;
17953;SDS011;9102;53.548;9.926;2023-12-20T03:27:07;16.50;;;2.00;;
17953;SDS011;9102;53.548;9.926;2023-12-20T03:29:34;15.50;;;2.33;;
17953;SDS011;9102;53.548;9.926;2023-12-20T03:32:02;13.85;;;1.90;;
17953;SDS011;9102;53.548;9.926;2023-12-20T03:34:30;13.45;;;1.90;;
17953;SDS011;9102;53.548;9.926;2023-12-20T03:36:59;20.02;;;2.03;;
17953;SDS011;9102;53.548;9.926;2023-12-20T03:39:26;15.32;;;2.20;;
17953;SDS011;9102;53.548;9.926;2023-12-20T03:41:53;12.13;;;2.08;;
17953;SDS011;9102;53.548;9.926;2023-12-20T03:44:19;18.73;;;1.65;;
17953;SDS011;9102;53.548;9.926;2023-12-20T03:46:46;14.07;;;1.92;;
17953;SDS011;9102;53.548;9.926;2023-12-20T03:49:15;10.40;;;2.05;;
17953;SDS011;9102;53.548;9.926;2023-12-20T03:51:42;19.08;;;1.92;;
17953;SDS011;9102;53.548;9.926;2023-12-20T03:54:09;22.35;;;2.50;;
17953;SDS011;9102;53.548;9.926;2023-12-20T03:56:36;18.20;;;2.35;;
17953;SDS011;9102;53.548;9.926;2023-12-20T03:59:03;13.35;;;1.88;;
17953;SDS011;9102;53.548;9.926;2023-12-20T04:01:29;20.75;;;2.20;;
17953;SDS011;9102;53.548;9.926;2023-12-20T04:03:56;13.02;;;1.67;;
17953;SDS011;9102;53.548;9.926;2023-12-20T04:06:25;9.90;;;1.77;;
17953;SDS011;9102;53.548;9.926;2023-12-20T04:08:54;14.68;;;1.75;;
17953;SDS011;9102;53.548;9.926;2023-12-20T04:11:21;12.00;;;2.58;;
17953;SDS011;9102;53.548;9.926;2023-12-20T04:13:48;14.93;;;2.00;;
17953;SDS011;9102;53.548;9.926;2023-12-20T04:16:16;14.25;;;2.00;;
17953;SDS011;9102;53.548;9.926;2023-12-20T04:18:43;14.10;;;2.72;;
17953;SDS011;9102;53.548;9.926;2023-12-20T04:21:10;9.43;;;1.98;;
17953;SDS011;9102;53.548;9.926;2023-12-20T04:23:40;15.75;;;2.53;;
17953;SDS011;9102;53.548;9.926;2023-12-20T04:26:07;11.80;;;1.55;;
17953;SDS011;9102;53.548;9.926;2023-12-20T04:28:34;11.82;;;2.05;;
17953;SDS011;9102;53.548;9.926;2023-12-20T04:31:03;13.50;;;1.60;;
17953;SDS011;9102;53.548;9.926;2023-12-20T04:33:30;15.82;;;1.80;;
17953;SDS011;9102;53.548;9.926;2023-12-20T04:35:56;12.55;;;2.13;;
17953;SDS011;9102;53.548;9.926;2023-12-20T04:38:23;15.45;;;2.20;;
17953;SDS011;9102;53.548;9.926;2023-12-20T04:40:51;16.67;;;2.20;;
17953;SDS011;9102;53.548;9.926;2023-12-20T04:43:18;14.50;;;1.42;;
17953;SDS011;9102;53.548;9.926;2023-12-20T04:45:45;12.15;;;1.92;;
17953;SDS011;9102;53.548;9.926;2023-12-20T04:48:12;10.70;;;2.00;;
17953;SDS011;9102;53.548;9.926;2023-12-20T04:50:39;15.75;;;1.85;;
17953;SDS011;9102;53.548;9.926;2023-12-20T04:53:05;14.60;;;1.88;;
17953;SDS011;9102;53.548;9.926;2023-12-20T04:55:32;13.43;;;2.20;;
17953;SDS011;9102;53.548;9.926;2023-12-20T04:58:00;9.75;;;1.77;;
17953;SDS011;9102;53.548;9.926;2023-12-20T05:00:27;17.27;;;2.30;;
17953;SDS011;9102;53.548;9.926;2023-12-20T05:02:55;10.85;;;1.92;;
17953;SDS011;9102;53.548;9.926;2023-12-20T05:05:22;17.05;;;2.63;;
17953;SDS011;9102;53.548;9.926;2023-12-20T05:07:48;14.85;;;2.38;;
17953;SDS011;9102;53.548;9.926;2023-12-20T05:10:15;16.73;;;2.50;;
17953;SDS011;9102;53.548;9.926;2023-12-20T05:12:42;13.32;;;2.40;;
17953;SDS011;9102;53.548;9.926;2023-12-20T05:15:10;14.52;;;2.05;;
17953;SDS011;9102;53.548;9.926;2023-12-20T05:17:40;17.95;;;2.08;;
17953;SDS011;9102;53.548;9.926;2023-12-20T05:20:07;21.75;;;2.70;;
17953;SDS011;9102;53.548;9.926;2023-12-20T05:22:35;18.10;;;2.38;;
17953;SDS011;9102;53.548;9.926;2023-12-20T05:25:02;15.52;;;2.50;;
17953;SDS011;9102;53.548;9.926;2023-12-20T05:27:29;15.65;;;2.00;;
17953;SDS011;9102;53.548;9.926;2023-12-20T05:29:56;20.52;;;2.85;;
17953;SDS011;9102;53.548;9.926;2023-12-20T05:32:24;14.25;;;2.03;;
17953;SDS011;9102;53.548;9.926;2023-12-20T05:34:51;17.67;;;2.65;;
17953;SDS011;9102;53.548;9.926;2023-12-20T05:37:18;17.85;;;2.40;;
17953;SDS011;9102;53.548;9.926;2023-12-20T05:39:45;16.02;;;1.95;;
17953;SDS011;9102;53.548;9.926;2023-12-20T05:42:12;11.80;;;1.73;;
17953;SDS011;9102;53.548;9.926;2023-12-20T05:44:38;19.58;;;2.65;;
17953;SDS011;9102;53.548;9.926;2023-12-20T05:47:05;18.42;;;2.53;;
17953;SDS011;9102;53.548;9.926;2023-12-20T05:49:33;11.70;;;1.77;;
17953;SDS011;9102;53.548;9.926;2023-12-20T05:52:00;18.60;;;2.53;;
17953;SDS011;9102;53.548;9.926;2023-12-20T05:54:27;19.33;;;2.55;;
17953;SDS011;9102;53.548;9.926;2023-12-20T05:56:54;21.10;;;2.22;;
17953;SDS011;9102;53.548;9.926;2023-12-20T05:59:21;19.73;;;2.08;;
17953;SDS011;9102;53.548;9.926;2023-12-20T06:01:48;13.82;;;2.00;;
17953;SDS011;9102;53.548;9.926;2023-12-20T06:04:15;18.17;;;2.78;;
17953;SDS011;9102;53.548;9.926;2023-12-20T06:06:43;14.38;;;1.88;;
17953;SDS011;9102;53.548;9.926;2023-12-20T06:09:10;13.77;;;2.78;;
17953;SDS011;9102;53.548;9.926;2023-12-20T06:11:37;16.20;;;2.75;;
17953;SDS011;9102;53.548;9.926;2023-12-20T06:14:04;16.45;;;2.80;;
17953;SDS011;9102;53.548;9.926;2023-12-20T06:16:31;20.15;;;2.55;;
17953;SDS011;9102;53.548;9.926;2023-12-20T06:18:58;14.35;;;2.38;;
17953;SDS011;9102;53.548;9.926;2023-12-20T06:21:24;21.30;;;2.58;;
17953;SDS011;9102;53.548;9.926;2023-12-20T06:23:52;15.10;;;2.40;;
17953;SDS011;9102;53.548;9.926;2023-12-20T06:26:19;14.82;;;2.47;;
17953;SDS011;9102;53.548;9.926;2023-12-20T06:28:49;13.75;;;2.17;;
17953;SDS011;9102;53.548;9.926;2023-12-20T06:31:16;14.07;;;2.10;;
17953;SDS011;9102;53.548;9.926;2023-12-20T06:33:46;11.50;;;2.00;;
17953;SDS011;9102;53.548;9.926;2023-12-20T06:36:14;11.00;;;1.63;;
17953;SDS011;9102;53.548;9.926;2023-12-20T06:38:41;10.23;;;2.53;;
17953;SDS011;9102;53.548;9.926;2023-12-20T06:41:10;21.42;;;3.00;;
17953;SDS011;9102;53.548;9.926;2023-12-20T06:43:39;20.92;;;2.58;;
17953;SDS011;9102;53.548;9.926;2023-12-20T06:46:06;16.60;;;2.50;;
17953;SDS011;9102;53.548;9.926;2023-12-20T06:48:33;18.13;;;2.25;;
17953;SDS011;9102;53.548;9.926;2023-12-20T06:51:00;11.77;;;2.40;;
17953;SDS011;9102;53.548;9.926;2023-12-20T06:53:27;16.30;;;2.28;;
17953;SDS011;9102;53.548;9.926;2023-12-20T06:55:54;16.40;;;2.45;;
17953;SDS011;9102;53.548;9.926;2023-12-20T06:58:23;13.52;;;2.28;;
17953;SDS011;9102;53.548;9.926;2023-12-20T07:00:50;17.85;;;3.08;;
17953;SDS011;9102;53.548;9.926;2023-12-20T07:03:17;13.20;;;2.65;;
17953;SDS011;9102;53.548;9.926;2023-12-20T07:05:44;14.43;;;2.50;;
17953;SDS011;9102;53.548;9.926;2023-12-20T07:08:11;13.57;;;2.10;;
17953;SDS011;9102;53.548;9.926;2023-12-20T07:10:39;16.88;;;3.00;;
17953;SDS011;9102;53.548;9.926;2023-12-20T07:13:06;20.80;;;2.90;;
17953;SDS011;9102;53.548;9.926;2023-12-20T07:15:34;16.60;;;2.60;;
17953;SDS011;9102;53.548;9.926;2023-12-20T07:18:02;17.15;;;2.80;;
17953;SDS011;9102;53.548;9.926;2023-12-20T07:20:29;12.05;;;2.35;;
17953;SDS011;9102;53.548;9.926;2023-12-20T07:22:56;15.20;;;2.53;;
17953;SDS011;9102;53.548;9.926;2023-12-20T07:25:23;21.05;;;2.67;;
17953;SDS011;9102;53.548;9.926;2023-12-20T07:27:50;20.75;;;2.83;;
17953;SDS011;9102;53.548;9.926;2023-12-20T07:30:17;21.85;;;3.00;;
17953;SDS011;9102;53.548;9.926;2023-12-20T07:32:45;17.38;;;2.45;;
17953;SDS011;9102;53.548;9.926;2023-12-20T07:35:12;18.90;;;2.53;;
17953;SDS011;9102;53.548;9.926;2023-12-20T07:37:39;16.65;;;2.38;;
17953;SDS011;9102;53.548;9.926;2023-12-20T07:40:06;17.67;;;2.70;;
17953;SDS011;9102;53.548;9.926;2023-12-20T07:42:34;20.92;;;3.78;;
17953;SDS011;9102;53.548;9.926;2023-12-20T07:45:01;14.90;;;3.05;;
17953;SDS011;9102;53.548;9.926;2023-12-20T07:47:28;24.70;;;3.60;;
17953;SDS011;9102;53.548;9.926;2023-12-20T07:49:56;23.40;;;3.13;;
17953;SDS011;9102;53.548;9.926;2023-12-20T07:52:23;22.88;;;3.75;;
17953;SDS011;9102;53.548;9.926;2023-12-20T07:54:51;17.20;;;2.45;;
17953;SDS011;9102;53.548;9.926;2023-12-20T07:57:17;14.80;;;2.35;;
17953;SDS011;9102;53.548;9.926;2023-12-20T07:59:44;25.65;;;3.20;;
17953;SDS011;9102;53.548;9.926;2023-12-20T08:02:11;14.10;;;3.08;;
17953;SDS011;9102;53.548;9.926;2023-12-20T08:04:38;21.10;;;3.08;;
17953;SDS011;9102;53.548;9.926;2023-12-20T08:07:07;20.27;;;3.38;;
17953;SDS011;9102;53.548;9.926;2023-12-20T08:09:34;23.88;;;2.90;;
17953;SDS011;9102;53.548;9.926;2023-12-20T08:12:02;24.17;;;2.95;;
17953;SDS011;9102;53.548;9.926;2023-12-20T08:14:29;19.20;;;2.35;;
17953;SDS011;9102;53.548;9.926;2023-12-20T08:16:56;13.13;;;2.30;;
17953;SDS011;9102;53.548;9.926;2023-12-20T08:19:23;18.33;;;2.50;;
17953;SDS011;9102;53.548;9.926;2023-12-20T08:21:50;19.40;;;3.38;;
17953;SDS011;9102;53.548;9.926;2023-12-20T08:24:18;17.58;;;2.50;;
17953;SDS011;9102;53.548;9.926;2023-12-20T08:26:45;16.05;;;3.35;;
17953;SDS011;9102;53.548;9.926;2023-12-20T08:29:12;16.85;;;3.42;;
17953;SDS011;9102;53.548;9.926;2023-12-20T08:31:39;25.17;;;3.45;;
17953;SDS011;9102;53.548;9.926;2023-12-20T08:34:06;16.35;;;3.35;;
17953;SDS011;9102;53.548;9.926;2023-12-20T08:36:33;15.75;;;2.97;;
17953;SDS011;9102;53.548;9.926;2023-12-20T08:39:00;14.35;;;2.40;;
17953;SDS011;9102;53.548;9.926;2023-12-20T08:41:30;14.15;;;2.35;;
17953;SDS011;9102;53.548;9.926;2023-12-20T08:43:57;22.58;;;3.05;;
17953;SDS011;9102;53.548;9.926;2023-12-20T08:46:24;21.98;;;2.92;;
17953;SDS011;9102;53.548;9.926;2023-12-20T08:48:50;17.05;;;2.85;;
17953;SDS011;9102;53.548;9.926;2023-12-20T08:51:17;16.17;;;2.70;;
17953;SDS011;9102;53.548;9.926;2023-12-20T08:53:47;23.58;;;2.90;;
17953;SDS011;9102;53.548;9.926;2023-12-20T08:56:14;17.73;;;3.33;;
17953;SDS011;9102;53.548;9.926;2023-12-20T08:58:44;17.45;;;3.08;;
17953;SDS011;9102;53.548;9.926;2023-12-20T09:01:12;16.55;;;3.00;;
17953;SDS011;9102;53.548;9.926;2023-12-20T09:03:39;15.40;;;2.63;;
17953;SDS011;9102;53.548;9.926;2023-12-20T09:06:06;17.48;;;2.58;;
17953;SDS011;9102;53.548;9.926;2023-12-20T09:08:33;13.07;;;2.33;;
17953;SDS011;9102;53.548;9.926;2023-12-20T09:11:00;14.77;;;2.33;;
17953;SDS011;9102;53.548;9.926;2023-12-20T09:13:26;12.55;;;2.25;;
17953;SDS011;9102;53.548;9.926;2023-12-20T09:15:55;14.18;;;2.47;;
17953;SDS011;9102;53.548;9.926;2023-12-20T09:18:22;19.30;;;2.47;;
17953;SDS011;9102;53.548;9.926;2023-12-20T09:20:49;13.30;;;2.75;;
17953;SDS011;9102;53.548;9.926;2023-12-20T09:23:17;18.88;;;2.88;;
17953;SDS011;9102;53.548;9.926;2023-12-20T09:25:44;8.48;;;1.48;;
17953;SDS011;9102;53.548;9.926;2023-12-20T09:28:12;11.18;;;2.10;;
17953;SDS011;9102;53.548;9.926;2023-12-20T09:30:39;5.20;;;1.10;;
17953;SDS011;9102;53.548;9.926;2023-12-20T09:33:07;12.77;;;1.48;;
17953;SDS011;9102;53.548;9.926;2023-12-20T09:35:34;7.57;;;1.30;;
17953;SDS011;9102;53.548;9.926;2023-12-20T09:38:01;6.00;;;0.93;;
17953;SDS011;9102;53.548;9.926;2023-12-20T09:40:28;3.75;;;0.90;;
17953;SDS011;9102;53.548;9.926;2023-12-20T09:42:58;2.42;;;0.82;;
17953;SDS011;9102;53.548;9.926;2023-12-20T09:45:30;1.90;;;0.57;;
17953;SDS011;9102;53.548;9.926;2023-12-20T09:47:58;5.25;;;0.80;;
17953;SDS011;9102;53.548;9.926;2023-12-20T09:50:26;2.00;;;0.60;;
17953;SDS011;9102;53.548;9.926;2023-12-20T09:52:55;2.00;;;0.40;;
17953;SDS011;9102;53.548;9.926;2023-12-20T09:55:24;2.55;;;0.47;;
17953;SDS011;9102;53.548;9.926;2023-12-20T09:57:51;4.07;;;0.80;;
17953;SDS011;9102;53.548;9.926;2023-12-20T10:00:18;2.50;;;0.68;;
17953;SDS011;9102;53.548;9.926;2023-12-20T10:02:53;2.88;;;0.50;;
17953;SDS011;9102;53.548;9.926;2023-12-20T10:05:26;2.92;;;0.30;;
17953;SDS011;9102;53.548;9.926;2023-12-20T10:07:55;1.42;;;0.22;;
17953;SDS011;9102;53.548;9.926;2023-12-20T10:10:22;3.88;;;0.45;;
17953;SDS011;9102;53.548;9.926;2023-12-20T10:13:00;0.95;;;0.40;;
17953;SDS011;9102;53.548;9.926;2023-12-20T10:15:28;2.22;;;0.40;;
17953;SDS011;9102;53.548;9.926;2023-12-20T10:17:56;3.17;;;0.45;;
17953;SDS011;9102;53.548;9.926;2023-12-20T10:20:23;6.60;;;1.10;;
17953;SDS011;9102;53.548;9.926;2023-12-20T10:22:51;1.83;;;0.30;;
17953;SDS011;9102;53.548;9.926;2023-12-20T10:25:19;2.45;;;0.40;;
17953;SDS011;9102;53.548;9.926;2023-12-20T10:27:46;5.00;;;0.73;;
17953;SDS011;9102;53.548;9.926;2023-12-20T10:30:13;3.72;;;0.70;;
17953;SDS011;9102;53.548;9.926;2023-12-20T10:32:40;2.95;;;0.73;;
17953;SDS011;9102;53.548;9.926;2023-12-20T10:35:07;6.05;;;0.80;;
17953;SDS011;9102;53.548;9.926;2023-12-20T10:37:35;5.50;;;0.80;;
17953;SDS011;9102;53.548;9.926;2023-12-20T10:40:04;3.47;;;0.82;;
17953;SDS011;9102;53.548;9.926;2023-12-20T10:42:32;5.40;;;0.90;;
17953;SDS011;9102;53.548;9.926;2023-12-20T10:45:01;5.68;;;0.70;;
17953;SDS011;9102;53.548;9.926;2023-12-20T10:47:28;5.28;;;0.70;;
17953;SDS011;9102;53.548;9.926;2023-12-20T10:49:57;7.82;;;0.80;;
17953;SDS011;9102;53.548;9.926;2023-12-20T10:52:26;4.00;;;0.90;;
17953;SDS011;9102;53.548;9.926;2023-12-20T10:54:55;7.38;;;1.08;;
17953;SDS011;9102;53.548;9.926;2023-12-20T10:57:23;9.35;;;1.00;;
17953;SDS011;9102;53.548;9.926;2023-12-20T10:59:53;5.43;;;0.60;;
17953;SDS011;9102;53.548;9.926;2023-12-20T11:02:21;8.07;;;1.20;;
17953;SDS011;9102;53.548;9.926;2023-12-20T11:04:51;4.10;;;0.65;;
17953;SDS011;9102;53.548;9.926;2023-12-20T11:07:22;3.67;;;0.57;;
17953;SDS011;9102;53.548;9.926;2023-12-20T11:09:56;3.22;;;0.80;;
17953;SDS011;9102;53.548;9.926;2023-12-20T11:12:32;11.38;;;1.05;;
17953;SDS011;9102;53.548;9.926;2023-12-20T11:15:04;6.47;;;0.93;;
17953;SDS011;9102;53.548;9.926;2023-12-20T11:17:32;6.05;;;0.80;;
17953;SDS011;9102;53.548;9.926;2023-12-20T11:20:09;2.45;;;0.80;;
17953;SDS011;9102;53.548;9.926;2023-12-20T11:22:39;6.43;;;1.10;;
17953;SDS011;9102;53.548;9.926;2023-12-20T11:25:18;4.95;;;1.00;;
17953;SDS011;9102;53.548;9.926;2023-12-20T11:28:06;15.23;;;1.40;;
17953;SDS011;9102;53.548;9.926;2023-12-20T11:30:40;15.60;;;1.80;;
17953;SDS011;9102;53.548;9.926;2023-12-20T11:33:07;10.40;;;1.30;;
17953;SDS011;9102;53.548;9.926;2023-12-20T11:35:34;5.10;;;1.05;;
17953;SDS011;9102;53.548;9.926;2023-12-20T11:38:02;11.77;;;1.50;;
17953;SDS011;9102;53.548;9.926;2023-12-20T11:40:29;12.77;;;1.75;;
17953;SDS011;9102;53.548;9.926;2023-12-20T11:43:03;14.18;;;1.27;;
17953;SDS011;9102;53.548;9.926;2023-12-20T11:45:31;8.50;;;1.30;;
17953;SDS011;9102;53.548;9.926;2023-12-20T11:47:59;15.95;;;1.77;;
17953;SDS011;9102;53.548;9.926;2023-12-20T11:50:28;18.88;;;1.80;;
17953;SDS011;9102;53.548;9.926;2023-12-20T11:52:56;19.63;;;1.77;;
17953;SDS011;9102;53.548;9.926;2023-12-20T11:55:23;13.73;;;2.03;;
17953;SDS011;9102;53.548;9.926;2023-12-20T11:57:49;8.05;;;1.45;;
17953;SDS011;9102;53.548;9.926;2023-12-20T12:00:18;13.40;;;1.92;;
17953;SDS011;9102;53.548;9.926;2023-12-20T12:02:54;10.98;;;1.90;;
17953;SDS011;9102;53.548;9.926;2023-12-20T12:05:24;12.55;;;1.50;;
17953;SDS011;9102;53.548;9.926;2023-12-20T12:07:51;12.20;;;1.55;;
17953;SDS011;9102;53.548;9.926;2023-12-20T12:10:18;15.68;;;1.88;;
17953;SDS011;9102;53.548;9.926;2023-12-20T12:12:45;13.30;;;1.83;;
17953;SDS011;9102;53.548;9.926;2023-12-20T12:15:13;7.65;;;1.58;;
17953;SDS011;9102;53.548;9.926;2023-12-20T12:17:42;19.73;;;1.58;;
17953;SDS011;9102;53.548;9.926;2023-12-20T12:20:09;15.68;;;1.83;;
17953;SDS011;9102;53.548;9.926;2023-12-20T12:22:37;14.73;;;1.60;;
17953;SDS011;9102;53.548;9.926;2023-12-20T12:25:10;17.67;;;2.45;;
17953;SDS011;9102;53.548;9.926;2023-12-20T12:27:41;13.13;;;2.15;;
17953;SDS011;9102;53.548;9.926;2023-12-20T12:30:09;17.85;;;2.17;;
17953;SDS011;9102;53.548;9.926;2023-12-20T12:32:38;15.30;;;2.40;;
17953;SDS011;9102;53.548;9.926;2023-12-20T12:35:07;24.55;;;2.75;;
17953;SDS011;9102;53.548;9.926;2023-12-20T12:37:37;16.10;;;2.05;;
17953;SDS011;9102;53.548;9.926;2023-12-20T12:40:06;15.40;;;2.42;;
17953;SDS011;9102;53.548;9.926;2023-12-20T12:42:35;21.92;;;2.10;;
17953;SDS011;9102;53.548;9.926;2023-12-20T12:45:03;16.00;;;1.75;;
17953;SDS011;9102;53.548;9.926;2023-12-20T12:47:31;15.52;;;1.95;;
17953;SDS011;9102;53.548;9.926;2023-12-20T12:49:58;20.10;;;2.70;;
17953;SDS011;9102;53.548;9.926;2023-12-20T12:52:26;14.27;;;1.70;;
17953;SDS011;9102;53.548;9.926;2023-12-20T12:54:53;23.77;;;3.00;;
17953;SDS011;9102;53.548;9.926;2023-12-20T12:57:20;16.05;;;2.60;;
17953;SDS011;9102;53.548;9.926;2023-12-20T12:59:47;13.73;;;2.25;;
17953;SDS011;9102;53.548;9.926;2023-12-20T13:02:13;12.95;;;1.73;;
17953;SDS011;9102;53.548;9.926;2023-12-20T13:04:41;16.83;;;2.58;;
17953;SDS011;9102;53.548;9.926;2023-12-20T13:07:08;17.08;;;2.35;;
17953;SDS011;9102;53.548;9.926;2023-12-20T13:09:37;14.02;;;2.17;;
17953;SDS011;9102;53.548;9.926;2023-12-20T13:12:05;24.83;;;3.03;;
17953;SDS011;9102;53.548;9.926;2023-12-20T13:14:33;16.13;;;2.65;;
17953;SDS011;9102;53.548;9.926;2023-12-20T13:17:02;21.95;;;2.50;;
17953;SDS011;9102;53.548;9.926;2023-12-20T13:19:29;20.02;;;2.42;;
17953;SDS011;9102;53.548;9.926;2023-12-20T13:21:56;17.35;;;2.38;;
17953;SDS011;9102;53.548;9.926;2023-12-20T13:24:24;14.85;;;2.17;;
17953;SDS011;9102;53.548;9.926;2023-12-20T13:26:52;15.40;;;3.00;;
17953;SDS011;9102;53.548;9.926;2023-12-20T13:29:19;25.95;;;2.90;;
17953;SDS011;9102;53.548;9.926;2023-12-20T13:31:46;21.67;;;2.70;;
17953;SDS011;9102;53.548;9.926;2023-12-20T13:34:13;16.27;;;2.72;;
17953;SDS011;9102;53.548;9.926;2023-12-20T13:36:42;18.20;;;2.65;;
17953;SDS011;9102;53.548;9.926;2023-12-20T13:39:10;15.05;;;2.75;;
17953;SDS011;9102;53.548;9.926;2023-12-20T13:41:38;20.33;;;3.05;;
17953;SDS011;9102;53.548;9.926;2023-12-20T13:44:06;22.17;;;3.47;;
17953;SDS011;9102;53.548;9.926;2023-12-20T13:46:33;19.77;;;3.40;;
17953;SDS011;9102;53.548;9.926;2023-12-20T13:49:00;19.77;;;3.22;;
17953;SDS011;9102;53.548;9.926;2023-12-20T13:51:26;26.02;;;2.88;;
17953;SDS011;9102;53.548;9.926;2023-12-20T13:53:53;17.52;;;3.33;;
17953;SDS011;9102;53.548;9.926;2023-12-20T13:56:20;25.50;;;3.00;;
17953;SDS011;9102;53.548;9.926;2023-12-20T13:58:48;19.75;;;2.85;;
17953;SDS011;9102;53.548;9.926;2023-12-20T14:01:17;27.58;;;3.92;;
17953;SDS011;9102;53.548;9.926;2023-12-20T14:03:44;25.38;;;3.80;;
17953;SDS011;9102;53.548;9.926;2023-12-20T14:06:11;19.65;;;3.78;;
17953;SDS011;9102;53.548;9.926;2023-12-20T14:08:39;16.60;;;3.42;;
17953;SDS011;9102;53.548;9.926;2023-12-20T14:11:06;33.90;;;4.88;;
17953;SDS011;9102;53.548;9.926;2023-12-20T14:13:33;29.88;;;4.47;;
17953;SDS011;9102;53.548;9.926;2023-12-20T14:16:00;33.25;;;4.15;;
17953;SDS011;9102;53.548;9.926;2023-12-20T14:18:30;26.77;;;4.78;;
17953;SDS011;9102;53.548;9.926;2023-12-20T14:20:57;21.02;;;4.75;;
17953;SDS011;9102;53.548;9.926;2023-12-20T14:23:24;25.42;;;4.28;;
17953;SDS011;9102;53.548;9.926;2023-12-20T14:25:50;18.98;;;4.20;;
17953;SDS011;9102;53.548;9.926;2023-12-20T14:28:17;22.23;;;4.57;;
17953;SDS011;9102;53.548;9.926;2023-12-20T14:30:44;21.38;;;4.00;;
17953;SDS011;9102;53.548;9.926;2023-12-20T14:33:11;17.65;;;3.90;;
17953;SDS011;9102;53.548;9.926;2023-12-20T14:35:40;26.10;;;4.68;;
17953;SDS011;9102;53.548;9.926;2023-12-20T14:38:09;17.38;;;3.80;;
17953;SDS011;9102;53.548;9.926;2023-12-20T14:40:38;17.38;;;3.50;;
17953;SDS011;9102;53.548;9.926;2023-12-20T14:43:05;13.32;;;2.88;;
17953;SDS011;9102;53.548;9.926;2023-12-20T14:45:32;25.17;;;4.70;;
17953;SDS011;9102;53.548;9.926;2023-12-20T14:47:59;20.30;;;3.80;;
17953;SDS011;9102;53.548;9.926;2023-12-20T14:50:26;20.75;;;3.25;;
17953;SDS011;9102;53.548;9.926;2023-12-20T14:52:54;20.88;;;3.55;;